Last 7 Days

Williams 2

Hourly Data | America/Los_Angeles
as of 8/12/22 4:25 AM PDT
Date & Time Temp (°F) RH (%) Dew Pt (°F) Wind Spd (mph) Wind Dir (°) Wind Gust (mph) Wind Gst Dir (°) Latest Rain (In) Daily Rain (In) Daily Min Temp (°F) Daily Max Temp (°F)
8/12/22 - 0400 51.8 81 46.2 0.0 N | 0 0.0 WNW | 302 0.00 0.00 51.1 55.2
8/12/22 - 0300 53.1 78 46.4 0.0 NW | 315 2.7 NNW | 329 0.00 0.00 52.2 55.2
8/12/22 - 0200 54.4 76 47.1 0.1 N | 350 2.1 NW | 310 0.00 0.00 53.6 55.2
8/12/22 - 0100 56.6 74 48.4 0.3 NE | 41 2.7 NE | 50 0.00 0.00 51.8 94.0
8/12/22 - 0000 61.2 68 50.7 0.8 NE | 49 6.1 ENE | 57 0.00 0.00 51.8 94.0
8/11/22 - 2300 64.3 62 51.2 1.8 E | 84 5.4 E | 95 0.00 0.00 51.8 94.0
8/11/22 - 2200 67.7 48 47.5 1.3 E | 89 6.4 E | 100 0.00 0.00 51.8 94.0
8/11/22 - 2100 72.1 42 47.5 1.0 N | 359 5.1 NW | 316 0.00 0.00 51.8 94.0
8/11/22 - 2000 80.1 34 49.0 2.2 SE | 140 6.8 SSW | 193 0.00 0.00 51.8 94.0
8/11/22 - 1900 85.9 28 49.1 3.6 SSW | 210 10.1 SSW | 193 0.00 0.00 51.8 94.0
8/11/22 - 1800 88.0 27 49.4 4.0 SW | 226 10.1 SW | 220 0.00 0.00 51.8 94.0
8/11/22 - 1700 87.7 32 54.1 7.1 WSW | 246 15.2 WSW | 257 0.00 0.00 51.8 94.0
8/11/22 - 1600 92.6 23 49.8 4.5 W | 281 11.5 NW | 317 0.00 0.00 51.8 94.0
8/11/22 - 1500 92.5 20 45.1 5.2 NW | 318 11.1 NNW | 330 0.00 0.00 51.8 93.7
8/11/22 - 1400 90.5 22 46.6 6.2 NW | 322 12.8 NNW | 348 0.00 0.00 51.8 91.8
8/11/22 - 1300 88.3 30 53.1 3.7 WSW | 249 9.1 NNE | 27 0.00 0.00 51.8 90.9
8/11/22 - 1200 85.6 34 54.2 2.8 SE | 133 8.8 ESE | 109 0.00 0.00 51.8 87.6
8/11/22 - 1100 82.0 40 55.0 3.5 SE | 133 8.1 SE | 128 0.00 0.00 51.8 84.4
8/11/22 - 1000 78.4 46 55.8 2.2 SSE | 154 7.1 ESE | 104 0.00 0.00 51.8 80.1
8/11/22 - 0900 72.4 58 56.5 0.3 S | 181 3.8 SSW | 204 0.00 0.00 51.8 76.2
8/11/22 - 0800 57.6 85 53.0 0.1 SW | 227 2.1 SW | 228 0.00 0.00 51.8 66.4
8/11/22 - 0700 52.3 90 49.4 0.1 NNE | 26 3.1 WSW | 254 0.00 0.00 51.8 57.9
8/11/22 - 0600 52.7 88 49.3 0.0 N | 0 0.0 NE | 50 0.00 0.00 52.0 57.9
8/11/22 - 0500 53.8 87 50.0 0.1 E | 86 2.4 NE | 54 0.00 0.00 53.2 57.9
8/11/22 - 0400 54.4 84 49.8 0.0 N | 0 0.0 S | 181 0.00 0.00 53.8 57.9
8/11/22 - 0300 56.1 82 50.7 0.0 N | 0 0.0 NNE | 17 0.00 0.00 55.2 57.9
8/11/22 - 0200 57.6 80 51.3 0.2 N | 352 3.1 NW | 304 0.00 0.00 57.1 57.9
8/11/22 - 0100 59.0 76 51.5 0.3 WSW | 257 3.1 N | 0 0.00 0.00 54.1 89.6
8/11/22 - 0000 61.3 68 50.8 0.2 ENE | 65 2.7 E | 90 0.00 0.00 54.1 89.6
8/10/22 - 2300 65.5 61 51.7 1.4 ESE | 115 4.4 ESE | 118 0.00 0.00 54.1 89.6
8/10/22 - 2200 66.4 56 50.5 0.4 E | 85 2.7 E | 99 0.00 0.00 54.1 89.6
8/10/22 - 2100 72.9 46 51.0 0.3 NE | 46 2.4 ENE | 61 0.00 0.00 54.1 89.6
8/10/22 - 2000 83.5 36 53.5 1.1 NW | 318 5.8 NNW | 338 0.00 0.00 54.1 89.6
8/10/22 - 1900 86.4 32 53.4 3.4 NW | 311 8.1 NW | 309 0.00 0.00 54.1 89.6
8/10/22 - 1800 86.5 32 53.0 4.6 WSW | 248 11.1 SW | 234 0.00 0.00 54.1 89.6
8/10/22 - 1700 86.1 34 54.4 7.2 WSW | 252 15.5 WSW | 243 0.00 0.00 54.1 89.6
8/10/22 - 1600 87.7 32 53.9 6.3 WSW | 254 13.8 WSW | 250 0.00 0.00 54.1 89.6
8/10/22 - 1500 88.5 29 51.9 4.8 W | 278 10.8 SSW | 198 0.00 0.00 54.1 89.6
8/10/22 - 1400 86.4 31 52.6 4.7 W | 280 10.8 SSW | 198 0.00 0.00 54.1 88.4
8/10/22 - 1300 84.0 34 52.3 4.6 W | 259 10.8 W | 273 0.00 0.00 54.1 85.1
8/10/22 - 1200 81.1 36 51.8 3.6 W | 269 12.5 W | 265 0.00 0.00 54.1 83.2
8/10/22 - 1100 77.4 41 52.0 4.9 WNW | 300 10.5 W | 278 0.00 0.00 54.1 78.8
8/10/22 - 1000 73.9 47 52.2 5.5 NNW | 348 11.5 N | 8 0.00 0.00 54.1 75.5
8/10/22 - 0900 70.6 54 53.3 0.8 SW | 220 9.5 N | 349 0.00 0.00 54.1 73.3
8/10/22 - 0800 59.8 77 52.5 0.5 SSE | 155 3.8 ESE | 107 0.00 0.00 54.1 67.6
8/10/22 - 0700 54.8 84 50.3 0.0 N | 0 0.0 SW | 226 0.00 0.00 54.1 62.3
8/10/22 - 0600 58.2 80 52.0 0.2 W | 264 3.4 WNW | 286 0.00 0.00 55.8 62.3
8/10/22 - 0500 59.8 76 52.3 2.7 NW | 319 11.5 NNW | 329 0.00 0.00 55.8 62.3
8/10/22 - 0400 56.2 82 50.8 0.0 SSE | 156 2.1 ESE | 111 0.00 0.00 55.8 59.5
8/10/22 - 0300 58.4 78 51.6 0.3 SW | 235 6.8 NW | 324 0.00 0.00 56.0 59.5
8/10/22 - 0200 56.6 78 49.6 0.1 WNW | 288 3.1 WNW | 296 0.00 0.00 56.0 57.6
8/10/22 - 0100 57.8 75 50.0 0.0 S | 180 1.4 S | 184 0.00 0.00 55.9 86.7
8/10/22 - 0000 60.5 72 51.3 0.3 E | 96 3.4 S | 176 0.00 0.00 55.9 86.7
8/9/22 - 2300 63.4 65 51.4 0.7 E | 80 4.1 E | 100 0.00 0.00 55.9 86.7
8/9/22 - 2200 66.7 59 51.8 1.4 ENE | 72 6.4 NW | 307 0.00 0.00 55.9 86.7
8/9/22 - 2100 70.0 53 52.2 1.2 W | 265 4.4 WNW | 293 0.00 0.00 55.9 86.7
8/9/22 - 2000 76.6 43 52.3 3.5 NW | 307 8.8 NNW | 335 0.00 0.00 55.9 86.7
8/9/22 - 1900 81.5 35 51.2 3.4 NW | 317 9.1 NW | 312 0.00 0.00 55.9 86.7
8/9/22 - 1800 82.3 34 51.1 4.7 WSW | 249 12.8 WSW | 246 0.00 0.00 55.9 86.7
8/9/22 - 1700 83.1 31 49.0 6.7 W | 263 18.8 W | 264 0.00 0.00 55.9 86.7
8/9/22 - 1600 85.0 28 48.3 7.5 W | 274 16.2 NW | 305 0.00 0.00 55.9 86.7
8/9/22 - 1500 85.3 29 49.5 6.9 WSW | 247 14.2 WSW | 238 0.00 0.00 55.9 86.4
8/9/22 - 1400 83.5 32 50.9 7.3 WSW | 248 14.2 WSW | 248 0.00 0.00 55.9 84.4
8/9/22 - 1300 83.4 33 51.6 5.5 WSW | 238 14.2 WSW | 242 0.00 0.00 55.9 84.4
8/9/22 - 1200 83.0 31 49.4 5.8 NNW | 332 11.8 NNW | 336 0.00 0.00 55.9 84.2
8/9/22 - 1100 81.5 32 48.9 3.9 N | 349 9.8 NW | 325 0.00 0.00 55.9 82.8
8/9/22 - 1000 76.1 45 53.0 3.0 SW | 215 9.1 NW | 304 0.00 0.00 55.9 79.3
8/9/22 - 0900 71.5 54 54.2 2.0 SW | 224 8.1 NW | 304 0.00 0.00 55.9 73.5
8/9/22 - 0800 61.2 73 52.6 0.4 ESE | 107 4.1 ESE | 112 0.00 0.00 55.9 68.2
8/9/22 - 0700 58.0 79 51.5 1.0 SW | 215 7.4 W | 261 0.00 0.00 55.9 62.2
8/9/22 - 0600 58.4 77 51.3 0.2 E | 99 3.1 ESE | 123 0.00 0.00 56.6 62.2
8/9/22 - 0500 60.7 73 52.1 1.5 W | 271 9.5 NW | 325 0.00 0.00 56.6 62.2
8/9/22 - 0400 57.1 75 49.1 0.1 ESE | 120 2.7 SE | 143 0.00 0.00 56.6 59.1
8/9/22 - 0300 57.6 71 48.1 0.2 NE | 45 3.4 NE | 54 0.00 0.00 56.8 59.1
8/9/22 - 0200 58.8 68 48.4 0.2 N | 358 3.4 NNW | 332 0.00 0.00 58.2 59.1
8/9/22 - 0100 59.4 65 47.5 0.1 E | 82 2.4 ESE | 106 0.00 0.00 54.4 90.7
8/9/22 - 0000 61.5 61 47.7 0.2 E | 97 2.4 SE | 137 0.00 0.00 54.4 90.7
8/8/22 - 2300 64.6 57 49.1 0.4 ENE | 78 2.7 S | 180 0.00 0.00 54.4 90.7
8/8/22 - 2200 68.6 51 49.7 0.3 ENE | 75 3.1 W | 280 0.00 0.00 54.4 90.7
8/8/22 - 2100 74.1 43 50.2 1.1 N | 10 4.8 NNE | 14 0.00 0.00 54.4 90.7
8/8/22 - 2000 83.5 32 50.6 1.1 W | 271 4.1 WNW | 297 0.00 0.00 54.4 90.7
8/8/22 - 1900 85.5 29 50.1 3.4 SW | 234 11.1 SW | 224 0.00 0.00 54.4 90.7
8/8/22 - 1800 86.8 29 51.2 5.2 WSW | 238 11.5 SSW | 208 0.00 0.00 54.4 90.7
8/8/22 - 1700 87.8 29 51.2 6.3 WSW | 240 13.8 WSW | 254 0.00 0.00 54.4 90.7
8/8/22 - 1600 88.5 28 51.6 6.7 WSW | 245 13.8 W | 271 0.00 0.00 54.4 90.7
8/8/22 - 1500 89.6 25 49.6 5.8 WSW | 253 13.5 WSW | 253 0.00 0.00 54.4 90.7
8/8/22 - 1400 89.0 25 48.8 4.6 WSW | 248 12.1 SSW | 205 0.00 0.00 54.4 90.7
8/8/22 - 1300 87.6 29 51.3 4.3 NW | 321 10.1 NNW | 345 0.00 0.00 54.4 88.9
8/8/22 - 1200 85.9 31 52.0 3.5 NW | 322 8.8 NW | 308 0.00 0.00 54.4 86.9
8/8/22 - 1100 82.4 34 51.1 4.2 NNW | 338 9.8 N | 8 0.00 0.00 54.4 84.3
8/8/22 - 1000 78.5 37 50.4 5.8 N | 350 12.5 N | 1 0.00 0.00 54.4 80.1
8/8/22 - 0900 74.1 50 54.2 1.4 S | 188 6.8 NNE | 28 0.00 0.00 54.4 77.7
8/8/22 - 0800 61.9 73 52.9 0.5 SSE | 161 3.4 SW | 236 0.00 0.00 54.4 69.6
8/8/22 - 0700 55.0 83 50.0 0.1 E | 91 3.1 ESE | 106 0.00 0.00 54.4 62.9
8/8/22 - 0600 56.5 81 50.8 0.2 ESE | 122 3.8 ESE | 120 0.00 0.00 55.1 62.9
8/8/22 - 0500 55.8 82 50.3 0.1 SE | 137 2.4 SSE | 166 0.00 0.00 55.1 62.9
8/8/22 - 0400 57.0 79 50.5 0.2 N | 3 2.7 NE | 52 0.00 0.00 56.3 62.9
8/8/22 - 0300 58.7 74 50.6 0.1 SE | 132 2.1 S | 170 0.00 0.00 57.4 62.9
8/8/22 - 0200 61.2 69 51.0 0.9 SSE | 147 4.4 WNW | 301 0.00 0.00 60.0 62.9
8/8/22 - 0100 60.9 68 50.3 0.7 ESE | 103 4.8 NW | 322 0.00 0.00 52.1 93.2
8/8/22 - 0000 61.3 64 48.9 0.6 E | 95 4.4 ESE | 120 0.00 0.00 52.1 93.2
8/7/22 - 2300 63.3 60 49.2 0.4 ESE | 119 3.4 ENE | 72 0.00 0.00 52.1 93.2
8/7/22 - 2200 67.8 54 50.3 0.8 E | 86 4.1 NE | 49 0.00 0.00 52.1 93.2
8/7/22 - 2100 73.4 44 50.4 0.8 NNE | 17 5.4 NW | 308 0.00 0.00 52.1 93.2
8/7/22 - 2000 82.0 34 50.4 1.7 NNW | 346 7.8 NW | 313 0.00 0.00 52.1 93.2
8/7/22 - 1900 85.7 30 51.0 4.6 NNW | 333 9.8 NNW | 347 0.00 0.00 52.1 93.2
8/7/22 - 1800 89.8 27 50.8 3.8 WNW | 286 8.8 WSW | 258 0.00 0.00 52.1 93.2
8/7/22 - 1700 92.3 21 47.1 4.5 NW | 326 9.8 NNW | 339 0.00 0.00 52.1 93.2
8/7/22 - 1600 91.9 23 48.9 4.7 NW | 319 10.5 NNW | 335 0.00 0.00 52.1 92.4
8/7/22 - 1500 91.1 25 50.3 5.3 NW | 326 10.5 NW | 308 0.00 0.00 52.1 92.0
8/7/22 - 1400 89.3 27 51.2 4.4 NW | 305 9.8 S | 170 0.00 0.00 52.1 90.3
8/7/22 - 1300 87.6 26 48.5 4.3 NNW | 339 9.8 N | 0 0.00 0.00 52.1 89.7
8/7/22 - 1200 83.6 30 48.8 5.0 NW | 320 11.1 N | 4 0.00 0.00 52.1 86.3
8/7/22 - 1100 80.2 35 49.9 3.4 NW | 322 9.8 NW | 310 0.00 0.00 52.1 82.4
8/7/22 - 1000 74.6 46 52.4 2.9 NNW | 344 7.8 NNW | 337 0.00 0.00 52.1 77.8
8/7/22 - 0900 71.3 53 53.2 1.0 WNW | 292 6.4 NNW | 330 0.00 0.00 52.1 72.8
8/7/22 - 0800 58.9 72 49.7 0.0 ENE | 59 1.7 ENE | 57 0.00 0.00 52.1 68.5
8/7/22 - 0700 52.4 81 46.8 0.1 NNE | 25 2.7 WNW | 285 0.00 0.00 52.1 57.4
8/7/22 - 0600 53.3 78 46.5 0.2 NNE | 24 2.4 ENE | 64 0.00 0.00 52.6 57.4
8/7/22 - 0500 55.9 74 47.8 0.1 E | 91 2.4 WNW | 293 0.00 0.00 54.4 57.4
8/7/22 - 0400 56.8 74 48.6 0.2 ESE | 108 2.4 SSE | 161 0.00 0.00 55.9 57.4
8/7/22 - 0300 56.3 71 46.9 0.4 E | 93 3.1 WSW | 247 0.00 0.00 55.9 57.4
8/7/22 - 0200 56.7 67 45.7 0.1 ENE | 59 2.1 N | 353 0.00 0.00 55.9 57.4
8/7/22 - 0100 57.6 65 45.8 0.1 NE | 49 2.7 E | 86 0.00 0.00 57.0 90.1
8/7/22 - 0000 60.3 63 47.6 0.0 WNW | 302 2.4 NW | 304 0.00 0.00 58.7 90.1
8/6/22 - 2300 63.5 59 48.9 0.0 N | 0 0.0 ENE | 75 0.00 0.00 58.7 90.1
8/6/22 - 2200 67.7 55 50.8 0.1 ENE | 60 2.1 NE | 52 0.00 0.00 58.7 90.1
8/6/22 - 2100 73.2 48 52.1 0.8 N | 356 4.1 NW | 311 0.00 0.00 58.7 90.1
8/6/22 - 2000 82.2 36 52.3 2.0 NNE | 12 8.1 N | 3 0.00 0.00 58.7 90.1
8/6/22 - 1900 86.4 32 53.5 2.2 WNW | 291 8.8 SW | 232 0.00 0.00 58.7 90.1
8/6/22 - 1800 86.9 33 54.5 4.0 WSW | 248 10.1 W | 271 0.00 0.00 58.7 90.1
8/6/22 - 1700 89.0 28 51.4 4.0 WNW | 296 9.5 NW | 305 0.00 0.00 58.7 90.1
8/6/22 - 1600 88.6 28 51.6 5.2 NW | 324 10.5 NW | 304 0.00 0.00 58.7 89.9
8/6/22 - 1500 87.6 31 53.4 4.7 NW | 323 14.5 WNW | 298 0.00 0.00 58.7 88.5
8/6/22 - 1400 86.2 33 53.4 4.1 NW | 310 10.8 WNW | 303 0.00 0.00 58.7 87.0
8/6/22 - 1300 84.4 35 53.6 4.5 NNW | 348 10.8 NW | 318 0.00 0.00 58.7 85.5
8/6/22 - 1200 80.5 39 53.3 4.1 NNW | 347 9.1 WNW | 285 0.00 0.00 58.7 83.2
8/6/22 - 1100 75.0 48 54.2 5.5 NNW | 337 11.5 N | 351 0.00 0.00 58.7 77.8
8/6/22 - 1000 70.1 59 55.0 7.0 NNW | 348 13.2 WSW | 244 0.00 0.00 58.7 72.5
8/6/22 - 0900 66.7 66 55.1 7.6 NNW | 339 15.8 NNW | 347 0.00 0.00 58.7 68.1
8/6/22 - 0800 63.6 73 54.9 5.8 NNW | 334 12.8 NNW | 337 0.00 0.00 58.7 65.8
8/6/22 - 0700 61.1 79 54.4 3.7 NW | 317 10.5 N | 352 0.00 0.00 58.7 62.4
8/6/22 - 0600 61.3 79 54.6 3.7 NW | 315 11.1 NW | 326 0.00 0.00 58.7 62.4
8/6/22 - 0500 62.2 78 55.2 5.1 NW | 325 10.8 NNW | 337 0.00 0.00 58.7 62.4
8/6/22 - 0400 61.8 80 55.4 3.2 NW | 306 9.1 NNW | 328 0.00 0.00 58.7 62.4
8/6/22 - 0300 60.2 83 54.9 2.2 NW | 304 12.1 N | 350 0.00 0.00 58.7 62.4
8/6/22 - 0200 59.9 81 54.2 0.4 NE | 42 3.1 W | 276 0.00 0.00 58.9 61.0
8/6/22 - 0100 62.2 78 55.4 2.0 ENE | 78 4.8 ENE | 71 0.00 0.00 61.0 89.3
8/6/22 - 0000 62.8 76 55.1 0.9 E | 80 3.8 ESE | 104 0.00 0.00 61.0 89.3
8/5/22 - 2300 65.0 73 56.2 1.3 SSW | 208 6.8 SSE | 167 0.00 0.00 61.0 89.3
8/5/22 - 2200 66.0 72 56.7 2.5 SSW | 195 8.8 SSE | 154 0.00 0.00 61.0 89.3
8/5/22 - 2100 68.3 67 57.1 4.7 SSW | 199 11.8 SSW | 193 0.00 0.00 61.0 89.3
8/5/22 - 2000 74.7 55 57.6 5.9 S | 189 12.5 S | 189 0.00 0.00 61.0 89.3
8/5/22 - 1900 80.7 47 58.5 6.0 S | 181 11.5 S | 176 0.00 0.00 61.0 89.3
8/5/22 - 1800 83.3 44 59.4 5.9 SW | 228 13.5 SW | 220 0.00 0.00 61.0 89.3
8/5/22 - 1700 85.3 42 59.4 4.2 W | 263 10.8 WSW | 238 0.00 0.00 61.0 89.3
8/5/22 - 1600 86.7 39 59.1 5.6 WSW | 253 12.8 W | 274 0.00 0.00 61.0 89.3
8/5/22 - 1500 87.1 38 58.3 4.3 SW | 222 11.5 S | 188 0.00 0.00 61.0 88.3
8/5/22 - 1400 87.2 39 59.1 5.1 SSW | 200 11.5 S | 170 0.00 0.00 61.0 88.3
8/5/22 - 1300 85.2 41 58.8 3.8 S | 189 11.1 SSE | 166 0.00 0.00 61.0 86.4
8/5/22 - 1200 81.5 43 57.1 2.7 NW | 320 8.4 N | 349 0.00 0.00 61.0 83.5
8/5/22 - 1100 76.4 49 55.8 4.6 NNW | 334 9.8 WNW | 302 0.00 0.00 61.0 79.7
8/5/22 - 1000 70.6 56 54.1 6.4 NNW | 330 11.8 NW | 304 0.00 0.00 61.0 72.8
8/5/22 - 0900 67.0 62 53.8 6.6 NNW | 332 11.5 NNW | 341 0.00 0.00 61.0 68.5
8/5/22 - 0800 63.2 71 53.7 4.8 NNW | 329 12.1 NNW | 338 0.00 0.00 61.0 66.1
8/5/22 - 0700 61.6 72 52.7 1.7 NW | 322 7.4 NW | 319 0.00 0.00 61.0 66.1
8/5/22 - 0600 61.9 70 52.0 0.3 NNE | 17 3.4 SSW | 206 0.00 0.00 61.4 66.1
8/5/22 - 0500 62.7 69 52.4 2.3 ENE | 64 5.8 NE | 39 0.00 0.00 62.5 66.1
Max 92.6 90 59.4 7.6 - 18.8 - 0.00 0.00 62.5 94.0
Avg 71.9 53 51.6 2.6 - 7.5 - 0.00 - - -
Min 51.8 20 45.1 0.0 - 0.0 - 0.00 0.00 51.1 55.2
Total - - - - - - - 0.00 - - -
Tip: Bookmark this page for easy future reference